Terminal Aerodrome Forecast
Issued by NWS

Home | Current Version | Previous Version | Text Only | Print | Product List | Glossary On
Versions: 1 2 3 4 5 6 7 8 9 10 11 12 13 14 15 16 17 18 19 20 21 22 23 24 25 26 27
000
FTUS42 KCAE 032000 AAA
TAFOGB
TAF AMD
KOGB 032032Z 0321/0418 VRB05KT P6SM SCT060
     FM040300 00000KT P6SM FEW060
     FM041400 21005KT P6SM BKN060=

USA.gov is the U.S. government's official web portal to all federal, state and local government web resources and services.